Time,TemperatureF,DewpointF,PressureIn,WindDirection,WindDirectionDegrees,WindSpeedMPH,WindSpeedGustMPH,Humidity,HourlyPrecipIn,Conditions,Clouds,dailyrainin,SoftwareType,DateUTC
2014-03-01 00:00:00,22.6,8.4,30.12,ENE,67,0.0,0.0,54,0.00,,,0.00,WUHU21623XXSP,2014-03-01 05:00:00,
2014-03-01 00:15:00,22.3,7.6,30.12,ENE,67,0.0,0.0,53,0.00,,,0.00,WUHU21623XXSP,2014-03-01 05:15:00,
2014-03-01 00:24:00,22.3,6.8,30.12,ENE,67,0.0,0.0,51,0.00,,,0.00,WUHU21623XXSP,2014-03-01 05:24:00,
2014-03-01 00:33:00,22.5,6.6,30.11,ENE,67,0.0,0.0,50,0.00,,,0.00,WUHU21623XXSP,2014-03-01 05:33:00,
2014-03-01 00:46:00,22.3,6.8,30.12,ENE,67,0.0,0.0,51,0.00,,,0.00,WUHU21623XXSP,2014-03-01 05:46:00,
2014-03-01 00:55:00,22.1,6.7,30.12,ENE,67,0.0,0.0,51,0.00,,,0.00,WUHU21623XXSP,2014-03-01 05:55:00,
2014-03-01 01:07:00,21.7,7.1,30.12,ENE,67,0.0,0.0,53,0.00,,,0.00,WUHU21623XXSP,2014-03-01 06:07:00,
2014-03-01 01:16:00,21.7,7.1,30.12,ENE,67,0.0,0.0,53,0.00,,,0.00,WUHU21623XXSP,2014-03-01 06:16:00,
2014-03-01 01:28:00,21.6,7.4,30.13,ENE,67,0.0,0.0,54,0.00,,,0.00,WUHU21623XXSP,2014-03-01 06:28:00,
2014-03-01 01:37:00,21.4,7.6,30.13,East,90,0.0,0.0,55,0.00,,,0.00,WUHU21623XXSP,2014-03-01 06:37:00,
2014-03-01 01:50:00,21.4,7.6,30.13,South,180,0.0,0.0,55,0.00,,,0.00,WUHU21623XXSP,2014-03-01 06:50:00,
2014-03-01 01:59:00,21.4,8.0,30.13,South,180,0.0,0.0,56,0.00,,,0.00,WUHU21623XXSP,2014-03-01 06:59:00,
2014-03-01 02:11:00,21.4,8.0,30.14,South,180,0.0,0.0,56,0.00,,,0.00,WUHU21623XXSP,2014-03-01 07:11:00,
2014-03-01 02:20:00,21.0,7.3,30.13,South,180,0.0,0.0,55,0.00,,,0.00,WUHU21623XXSP,2014-03-01 07:20:00,
2014-03-01 02:33:00,21.4,8.0,30.13,South,180,0.0,0.0,56,0.00,,,0.00,WUHU21623XXSP,2014-03-01 07:33:00,
2014-03-01 02:42:00,21.0,8.1,30.13,South,180,0.0,0.0,57,0.00,,,0.00,WUHU21623XXSP,2014-03-01 07:42:00,
2014-03-01 02:54:00,20.8,7.5,30.13,South,180,0.0,0.0,56,0.00,,,0.00,WUHU21623XXSP,2014-03-01 07:54:00,
2014-03-01 03:03:00,20.8,7.5,30.13,South,180,0.0,0.0,56,0.00,,,0.00,WUHU21623XXSP,2014-03-01 08:03:00,
2014-03-01 03:15:00,20.8,7.5,30.13,South,180,0.0,0.0,56,0.00,,,0.00,WUHU21623XXSP,2014-03-01 08:15:00,
2014-03-01 03:24:00,20.8,7.5,30.13,South,180,0.0,0.0,56,0.00,,,0.00,WUHU21623XXSP,2014-03-01 08:24:00,
2014-03-01 03:37:00,20.8,7.5,30.13,South,180,0.0,0.0,56,0.00,,,0.00,WUHU21623XXSP,2014-03-01 08:37:00,
2014-03-01 03:46:00,21.0,7.3,30.13,South,180,0.0,0.0,55,0.00,,,0.00,WUHU21623XXSP,2014-03-01 08:46:00,
2014-03-01 03:58:00,21.0,7.7,30.13,South,180,0.0,0.0,56,0.00,,,0.00,WUHU21623XXSP,2014-03-01 08:58:00,
2014-03-01 04:19:00,21.4,8.0,30.13,South,180,0.0,0.0,56,0.00,,,0.00,WUHU21623XXSP,2014-03-01 09:19:00,
2014-03-01 04:28:00,21.0,7.7,30.13,South,180,0.0,0.0,56,0.00,,,0.00,WUHU21623XXSP,2014-03-01 09:28:00,
2014-03-01 04:47:00,21.0,8.1,30.13,South,180,0.0,0.0,57,0.00,,,0.00,WUHU21623XXSP,2014-03-01 09:47:00,
2014-03-01 04:56:00,21.0,8.1,30.13,South,180,0.0,0.0,57,0.00,,,0.00,WUHU21623XXSP,2014-03-01 09:56:00,
2014-03-01 05:19:00,21.0,8.9,30.13,South,180,0.0,0.0,59,0.00,,,0.00,WUHU21623XXSP,2014-03-01 10:19:00,
2014-03-01 05:31:00,21.0,8.9,30.14,South,180,0.0,0.0,59,0.00,,,0.00,WUHU21623XXSP,2014-03-01 10:31:00,
2014-03-01 05:40:00,21.0,8.9,30.14,South,180,0.0,0.0,59,0.00,,,0.00,WUHU21623XXSP,2014-03-01 10:40:00,
2014-03-01 05:50:00,21.0,8.9,30.14,South,180,0.0,0.0,59,0.00,,,0.00,WUHU21623XXSP,2014-03-01 10:50:00,
2014-03-01 05:59:00,21.6,9.0,30.14,South,180,0.0,0.0,58,0.00,,,0.00,WUHU21623XXSP,2014-03-01 10:59:00,
2014-03-01 06:10:00,21.6,9.0,30.14,South,180,0.0,0.0,58,0.00,,,0.00,WUHU21623XXSP,2014-03-01 11:10:00,
2014-03-01 06:19:00,21.9,9.3,30.13,South,180,0.0,0.0,58,0.00,,,0.00,WUHU21623XXSP,2014-03-01 11:19:00,
2014-03-01 06:29:00,21.9,9.3,30.13,South,180,0.0,0.0,58,0.00,,,0.00,WUHU21623XXSP,2014-03-01 11:29:00,
2014-03-01 06:38:00,21.9,9.3,30.13,South,180,0.0,0.0,58,0.00,,,0.00,WUHU21623XXSP,2014-03-01 11:38:00,
2014-03-01 06:48:00,21.9,9.7,30.14,South,180,0.0,0.0,59,0.00,,,0.00,WUHU21623XXSP,2014-03-01 11:48:00,
2014-03-01 06:57:00,21.9,9.7,30.14,South,180,0.0,0.0,59,0.00,,,0.00,WUHU21623XXSP,2014-03-01 11:57:00,
2014-03-01 07:06:00,21.9,10.1,30.14,South,180,0.0,0.0,60,0.00,,,0.00,WUHU21623XXSP,2014-03-01 12:06:00,
2014-03-01 07:15:00,21.9,10.5,30.14,South,180,0.0,0.0,61,0.00,,,0.00,WUHU21623XXSP,2014-03-01 12:15:00,
2014-03-01 07:25:00,21.9,10.8,30.14,South,180,0.0,0.0,62,0.00,,,0.00,WUHU21623XXSP,2014-03-01 12:25:00,
2014-03-01 07:34:00,22.1,11.9,30.14,South,180,0.0,0.0,64,0.00,,,0.00,WUHU21623XXSP,2014-03-01 12:34:00,
2014-03-01 07:46:00,22.5,12.4,30.14,South,180,0.0,0.0,65,0.00,,,0.00,WUHU21623XXSP,2014-03-01 12:46:00,
2014-03-01 07:55:00,22.8,13.1,30.15,South,180,0.0,0.0,66,0.00,,,0.00,WUHU21623XXSP,2014-03-01 12:55:00,
2014-03-01 08:04:00,23.4,13.6,30.15,South,180,0.0,0.0,66,0.00,,,0.00,WUHU21623XXSP,2014-03-01 13:04:00,
2014-03-01 08:13:00,24.1,14.3,30.15,South,180,0.0,0.0,66,0.00,,,0.00,WUHU21623XXSP,2014-03-01 13:13:00,
2014-03-01 08:22:00,24.8,14.6,30.15,South,180,0.0,0.0,65,0.00,,,0.00,WUHU21623XXSP,2014-03-01 13:22:00,
2014-03-01 08:31:00,25.5,15.3,30.15,South,180,0.0,0.0,65,0.00,,,0.00,WUHU21623XXSP,2014-03-01 13:31:00,
2014-03-01 08:43:00,27.5,16.9,30.15,SSW,202,0.0,0.0,64,0.00,,,0.00,WUHU21623XXSP,2014-03-01 13:43:00,
2014-03-01 08:52:00,28.6,17.6,30.16,SSW,202,0.0,0.0,63,0.00,,,0.00,WUHU21623XXSP,2014-03-01 13:52:00,
2014-03-01 09:01:00,29.5,18.4,30.16,SSW,202,0.0,0.0,63,0.00,,,0.00,WUHU21623XXSP,2014-03-01 14:01:00,
2014-03-01 09:18:00,31.8,19.6,30.16,SSW,202,0.0,0.0,60,0.00,,,0.00,WUHU21623XXSP,2014-03-01 14:18:00,
2014-03-01 09:27:00,33.6,20.1,30.16,SW,225,0.0,0.0,59,0.00,,,0.00,WUHU21623XXSP,2014-03-01 14:27:00,
2014-03-01 09:39:00,36.1,21.1,30.16,SW,225,0.0,0.0,54,0.00,,,0.00,WUHU21623XXSP,2014-03-01 14:39:00,
2014-03-01 09:48:00,36.7,20.7,30.16,SSW,202,0.0,0.0,52,0.00,,,0.00,WUHU21623XXSP,2014-03-01 14:48:00,
2014-03-01 10:00:00,37.8,21.2,30.17,SSW,202,0.0,0.0,51,0.00,,,0.00,WUHU21623XXSP,2014-03-01 15:00:00,
2014-03-01 10:09:00,38.5,20.9,30.17,SW,225,0.0,0.0,49,0.00,,,0.00,WUHU21623XXSP,2014-03-01 15:09:00,
2014-03-01 10:18:00,39.6,21.4,30.16,SW,225,0.0,0.0,48,0.00,,,0.00,WUHU21623XXSP,2014-03-01 15:18:00,
2014-03-01 10:27:00,40.8,22.0,30.16,SW,225,0.0,0.0,47,0.00,,,0.00,WUHU21623XXSP,2014-03-01 15:27:00,
2014-03-01 10:39:00,42.3,22.3,30.17,SW,225,0.0,0.0,45,0.00,,,0.00,WUHU21623XXSP,2014-03-01 15:39:00,
2014-03-01 10:48:00,43.0,22.4,30.17,West,270,0.0,0.0,44,0.00,,,0.00,WUHU21623XXSP,2014-03-01 15:48:00,
2014-03-01 11:01:00,43.7,23.1,30.16,SW,225,0.0,8.1,44,0.00,,,0.00,WUHU21623XXSP,2014-03-01 16:01:00,
2014-03-01 11:10:00,44.4,23.7,30.16,West,270,0.0,0.0,44,0.00,,,0.00,WUHU21623XXSP,2014-03-01 16:10:00,
2014-03-01 11:22:00,45.1,24.4,30.16,SW,225,0.0,6.9,44,0.00,,,0.00,WUHU21623XXSP,2014-03-01 16:22:00,
2014-03-01 11:31:00,45.9,25.6,30.16,SSW,202,0.0,0.0,45,0.00,,,0.00,WUHU21623XXSP,2014-03-01 16:31:00,
2014-03-01 11:43:00,46.0,25.4,30.16,SW,225,6.7,6.7,45,0.00,,,0.00,WUHU21623XXSP,2014-03-01 16:43:00,
2014-03-01 11:52:00,46.2,25.9,30.16,SSW,202,6.5,6.7,45,0.00,,,0.00,WUHU21623XXSP,2014-03-01 16:52:00,
2014-03-01 12:05:00,47.1,26.7,30.15,WSW,247,0.0,6.9,45,0.00,,,0.00,WUHU21623XXSP,2014-03-01 17:05:00,
2014-03-01 12:14:00,47.5,27.0,30.15,SW,225,4.5,4.5,45,0.00,,,0.00,WUHU21623XXSP,2014-03-01 17:14:00,
2014-03-01 12:26:00,47.7,26.7,30.15,WSW,247,0.0,6.0,45,0.00,,,0.00,WUHU21623XXSP,2014-03-01 17:26:00,
2014-03-01 12:35:00,47.8,27.4,30.15,WSW,247,0.9,10.1,45,0.00,,,0.00,WUHU21623XXSP,2014-03-01 17:35:00,
2014-03-01 12:48:00,47.8,27.4,30.14,South,180,3.1,4.7,45,0.00,,,0.00,WUHU21623XXSP,2014-03-01 17:48:00,
2014-03-01 12:57:00,48.0,27.5,30.14,WSW,247,6.3,6.3,45,0.00,,,0.00,WUHU21623XXSP,2014-03-01 17:57:00,
2014-03-01 13:09:00,48.0,28.1,30.14,SSW,202,6.5,8.1,46,0.00,,,0.00,WUHU21623XXSP,2014-03-01 18:09:00,
2014-03-01 13:18:00,47.8,28.4,30.14,SSW,202,0.0,2.5,47,0.00,,,0.00,WUHU21623XXSP,2014-03-01 18:18:00,
2014-03-01 13:30:00,47.8,28.4,30.13,South,180,0.0,6.9,47,0.00,,,0.00,WUHU21623XXSP,2014-03-01 18:30:00,
2014-03-01 13:39:00,48.6,29.6,30.13,NW,315,0.0,5.8,48,0.00,,,0.00,WUHU21623XXSP,2014-03-01 18:39:00,
2014-03-01 13:52:00,49.1,29.6,30.13,SW,225,5.1,7.4,47,0.00,,,0.00,WUHU21623XXSP,2014-03-01 18:52:00,
2014-03-01 14:01:00,48.2,28.8,30.13,SSW,202,1.3,1.3,47,0.00,,,0.00,WUHU21623XXSP,2014-03-01 19:01:00,
2014-03-01 14:13:00,47.5,29.2,30.13,SW,225,4.0,4.0,49,0.00,,,0.00,WUHU21623XXSP,2014-03-01 19:13:00,
2014-03-01 14:22:00,47.1,29.4,30.12,SW,225,0.0,6.7,50,0.00,,,0.00,WUHU21623XXSP,2014-03-01 19:22:00,
2014-03-01 14:35:00,47.5,29.7,30.13,WSW,247,1.1,1.1,50,0.00,,,0.00,WUHU21623XXSP,2014-03-01 19:35:00,
2014-03-01 14:44:00,47.5,30.2,30.13,SSW,202,2.2,4.3,51,0.00,,,0.00,WUHU21623XXSP,2014-03-01 19:44:00,
2014-03-01 14:56:00,48.0,30.7,30.12,SSW,202,1.6,1.6,51,0.00,,,0.00,WUHU21623XXSP,2014-03-01 19:56:00,
2014-03-01 15:05:00,48.0,31.1,30.12,SSW,202,0.0,6.5,52,0.00,,,0.00,WUHU21623XXSP,2014-03-01 20:05:00,
2014-03-01 15:18:00,47.8,31.0,30.11,South,180,0.0,8.5,52,0.00,,,0.00,WUHU21623XXSP,2014-03-01 20:18:00,
2014-03-01 15:27:00,47.5,31.1,30.11,SSW,202,4.5,7.2,53,0.00,,,0.00,WUHU21623XXSP,2014-03-01 20:27:00,
2014-03-01 15:39:00,46.9,31.1,30.10,SSW,202,4.0,4.9,54,0.00,,,0.00,WUHU21623XXSP,2014-03-01 20:39:00,
2014-03-01 15:48:00,46.6,31.2,30.09,SSW,202,1.6,4.0,55,0.00,,,0.00,WUHU21623XXSP,2014-03-01 20:48:00,
2014-03-01 16:01:00,46.6,31.2,30.09,SSW,202,3.8,3.8,55,0.00,,,0.00,WUHU21623XXSP,2014-03-01 21:01:00,
2014-03-01 16:10:00,46.2,31.3,30.09,WSW,247,0.0,3.8,56,0.00,,,0.00,WUHU21623XXSP,2014-03-01 21:10:00,
2014-03-01 16:22:00,45.7,30.8,30.09,SSW,202,0.0,6.5,56,0.00,,,0.00,WUHU21623XXSP,2014-03-01 21:22:00,
2014-03-01 16:31:00,45.7,31.3,30.09,SSW,202,0.0,4.3,57,0.00,,,0.00,WUHU21623XXSP,2014-03-01 21:31:00,
2014-03-01 16:44:00,45.3,30.9,30.10,South,180,0.0,2.5,58,0.00,,,0.00,WUHU21623XXSP,2014-03-01 21:44:00,
2014-03-01 16:53:00,45.0,31.5,30.11,SW,225,0.0,4.7,59,0.00,,,0.00,WUHU21623XXSP,2014-03-01 21:53:00,
2014-03-01 17:05:00,44.6,31.2,30.11,SSW,202,2.9,2.9,59,0.00,,,0.00,WUHU21623XXSP,2014-03-01 22:05:00,
2014-03-01 17:14:00,44.4,31.0,30.11,South,180,0.0,3.6,59,0.00,,,0.00,WUHU21623XXSP,2014-03-01 22:14:00,
2014-03-01 17:27:00,43.9,30.5,30.12,South,180,7.6,7.6,59,0.00,,,0.00,WUHU21623XXSP,2014-03-01 22:27:00,
2014-03-01 17:36:00,43.5,30.1,30.13,SSW,202,2.2,2.5,59,0.00,,,0.00,WUHU21623XXSP,2014-03-01 22:36:00,
2014-03-01 17:48:00,43.5,30.1,30.13,SSW,202,0.0,3.1,59,0.00,,,0.00,WUHU21623XXSP,2014-03-01 22:48:00,
2014-03-01 17:57:00,43.2,29.8,30.13,SSW,202,0.0,0.0,59,0.00,,,0.00,WUHU21623XXSP,2014-03-01 22:57:00,
2014-03-01 18:10:00,43.0,29.6,30.13,South,180,0.0,0.0,59,0.00,,,0.00,WUHU21623XXSP,2014-03-01 23:10:00,
2014-03-01 18:19:00,42.6,29.2,30.13,South,180,0.0,0.0,59,0.00,,,0.00,WUHU21623XXSP,2014-03-01 23:19:00,
2014-03-01 18:31:00,42.4,29.5,30.12,SSW,202,0.0,0.0,60,0.00,,,0.00,WUHU21623XXSP,2014-03-01 23:31:00,
2014-03-01 18:40:00,42.1,29.2,30.13,SSW,202,2.2,2.2,60,0.00,,,0.00,WUHU21623XXSP,2014-03-01 23:40:00,
2014-03-01 18:52:00,42.1,29.2,30.12,SSW,202,2.9,2.9,60,0.00,,,0.00,WUHU21623XXSP,2014-03-01 23:52:00,
2014-03-01 19:01:00,41.9,29.0,30.12,SW,225,0.0,2.9,60,0.00,,,0.00,WUHU21623XXSP,2014-03-02 00:01:00,
2014-03-01 19:14:00,41.5,28.7,30.12,SW,225,0.0,0.0,60,0.00,,,0.00,WUHU21623XXSP,2014-03-02 00:14:00,
2014-03-01 19:23:00,41.5,28.7,30.13,SW,225,0.0,0.0,60,0.00,,,0.00,WUHU21623XXSP,2014-03-02 00:23:00,
2014-03-01 19:35:00,41.0,28.2,30.13,SW,225,0.0,0.0,60,0.00,,,0.00,WUHU21623XXSP,2014-03-02 00:35:00,
2014-03-01 19:44:00,40.8,28.4,30.12,WSW,247,0.0,0.0,61,0.00,,,0.00,WUHU21623XXSP,2014-03-02 00:44:00,
2014-03-01 19:57:00,40.8,28.4,30.12,WSW,247,0.0,0.0,61,0.00,,,0.00,WUHU21623XXSP,2014-03-02 00:57:00,
2014-03-01 20:06:00,40.3,27.9,30.12,WSW,247,0.0,0.0,61,0.00,,,0.00,WUHU21623XXSP,2014-03-02 01:06:00,
2014-03-01 20:18:00,39.9,27.5,30.12,WSW,247,0.0,2.7,61,0.00,,,0.00,WUHU21623XXSP,2014-03-02 01:18:00,
2014-03-01 20:27:00,39.9,27.9,30.12,WSW,247,0.0,0.0,62,0.00,,,0.00,WUHU21623XXSP,2014-03-02 01:27:00,
2014-03-01 20:40:00,39.9,27.9,30.13,WSW,247,0.0,0.0,62,0.00,,,0.00,WUHU21623XXSP,2014-03-02 01:40:00,
2014-03-01 20:49:00,39.9,27.9,30.12,WSW,247,0.0,0.0,62,0.00,,,0.00,WUHU21623XXSP,2014-03-02 01:49:00,
2014-03-01 21:01:00,40.1,28.1,30.13,WSW,247,0.0,0.0,62,0.00,,,0.00,WUHU21623XXSP,2014-03-02 02:01:00,
2014-03-01 21:10:00,40.3,28.3,30.12,WSW,247,0.0,0.0,62,0.00,,,0.00,WUHU21623XXSP,2014-03-02 02:10:00,
2014-03-01 21:22:00,40.5,28.4,30.13,SW,225,0.0,0.0,62,0.00,,,0.00,WUHU21623XXSP,2014-03-02 02:22:00,
2014-03-01 21:31:00,40.6,28.6,30.13,SW,225,0.0,0.0,62,0.00,,,0.00,WUHU21623XXSP,2014-03-02 02:31:00,
2014-03-01 21:44:00,40.6,28.6,30.13,SSW,202,0.0,0.0,62,0.00,,,0.00,WUHU21623XXSP,2014-03-02 02:44:00,
2014-03-01 21:53:00,40.6,28.6,30.13,SSW,202,0.0,0.0,62,0.00,,,0.00,WUHU21623XXSP,2014-03-02 02:53:00,
2014-03-01 22:05:00,40.8,28.8,30.13,South,180,0.0,0.0,62,0.00,,,0.00,WUHU21623XXSP,2014-03-02 03:05:00,
2014-03-01 22:14:00,40.8,28.8,30.13,SSW,202,0.0,0.0,62,0.00,,,0.00,WUHU21623XXSP,2014-03-02 03:14:00,
2014-03-01 22:27:00,40.8,28.8,30.13,SSW,202,0.0,0.0,62,0.00,,,0.00,WUHU21623XXSP,2014-03-02 03:27:00,
2014-03-01 22:36:00,40.8,28.8,30.11,SSW,202,0.0,0.0,62,0.00,,,0.00,WUHU21623XXSP,2014-03-02 03:36:00,
2014-03-01 22:48:00,40.8,28.8,30.11,SSW,202,0.0,0.0,62,0.00,,,0.00,WUHU21623XXSP,2014-03-02 03:48:00,
2014-03-01 22:57:00,40.8,28.8,30.10,SSW,202,0.0,0.0,62,0.00,,,0.00,WUHU21623XXSP,2014-03-02 03:57:00,
2014-03-01 23:10:00,40.8,28.8,30.10,SSW,202,0.0,0.0,62,0.00,,,0.00,WUHU21623XXSP,2014-03-02 04:10:00,
2014-03-01 23:19:00,40.8,28.8,30.10,SSW,202,0.0,0.0,62,0.00,,,0.00,WUHU21623XXSP,2014-03-02 04:19:00,
2014-03-01 23:31:00,40.8,28.8,30.09,SSW,202,0.0,0.0,62,0.00,,,0.00,WUHU21623XXSP,2014-03-02 04:31:00,
2014-03-01 23:40:00,40.6,28.6,30.10,SSW,202,0.0,0.0,62,0.00,,,0.00,WUHU21623XXSP,2014-03-02 04:40:00,
2014-03-01 23:53:00,40.6,28.6,30.09,SSW,202,0.0,0.0,62,0.00,,,0.00,WUHU21623XXSP,2014-03-02 04:53:00,